KAUM/AUM METAR and TAF weather

Enter ICAO airport designator
Station Type Date Time Source
KAUM METAR 2019/04/25 01:55 UTC NOAA

KAUM 250155Z AUTO 16006KT 10SM 16/06 A2976 RMK AO2


Station Type Date Time Source
KAUM Decoded METAR 2019/04/25 01:55 UTC NOAA

Austin Municipal, MN, United States (KAUM) 43-40N 092-56W
Apr 24, 2019 - 09:55 PM EDT / 2019.04.25 0155 UTC
Wind: from the SSE (160 degrees) at 7 MPH (6 KT):0
Visibility: 10 mile(s):0
Temperature: 60 F (16 C)
Dew Point: 42 F (6 C)
Relative Humidity: 51%
Pressure (altimeter): 29.76 in. Hg (1007 hPa)
ob: KAUM 250155Z AUTO 16006KT 10SM 16/06 A2976 RMK AO2
cycle: 2

Station Type Date Time Source
KAUM TAF UTC NOAA

Error!

Example: see airport list